Huvudsida
METAR-TAF:

METAR-TAF

Flygplatser :

Jakutsk, Ryssland

latitud: 62-01N, longitud: 129-43E, höjd: 103 m

Aktuellt väderrapport

Denna rapport gjordes för 49 minuter sedan, klockan 23:00 UTC
Vind 12 kt från väst/sydväst
Temperatur 9°C
Fuktighet 87%
Tryck 998 hPa
Sikt 10 km eller mer
Brutna moln på en höjd av 1600 ft, Cumulonimbus.

METAR: UEEE 222300Z 24006MPS 9999 BKN016CB 09/07 Q0998 R23L/190155 NOSIG RMK QFE740

Tid: 08:49 (23:49 UTC)

Väderprognos

Denna rapport gjordes för 49 minuter sedan, klockan 23:00 UTC
Prognos gäller från 23 kl. 00 UTC till 24 kl. 06 UTC
Vind 10 kt från väst i byarna ända upp till 27 kt
Sikt: 5000 m
Brutna moln på en höjd av 1300 ft, Cumulonimbus.
lätta regnskurar
Temporärt
från 23 kl. 00 UTC till 23 kl. 03 UTC
Vind 33 kt varierande vindriktning
åska, lätt regn

TAF: UEEE 222300Z 2300/2406 28005G14MPS 5000 -SHRA BKN013CB TEMPO 2300/2303 VRB17MPS -TSRA

Aktuella väderrapporter och prognoser från 4000 flygplatser (METAR- och TAF-rapporter).

De tillgängliga stationerna syns som gula och röda prickar på kartan.

För musen över prickarna för att se namnen på stationerna.

Klicka sedan för att få väderrapporter och prognoser.

För att ändra kartan: Klicka på de gröna knapparna med ett svart kors på för att zooma in; den gröna knappen med ett streck på för att zooma ut; eller på de gröna pilarna för angränsande kartor.


METAR-TAF: